Arp, Texas
Current Conditions -  °F | °C
As of 10:15 AM on Saturday 25 Oct 2014 (Local Time) from KRFI Reporting Station
Clear Clear  
Wind Chill: 70°   Ceiling: Unl
Heat Index: 70°   Visibility: 10mi
Dew Point: 59°   Wind: 5mph
Humidity: 67%   Direction: 230°SW
Pressure: 30.2"   Gusts: NA
Location:  32.23°N, 95.06°W
Report Text: KRFI 251515Z AUTO 23004KT 10SM CLR 21/15 A3020 RMK AO2 T02120149
Loading
Personal Weather Stations






























Interactive Weather Map New forecast layout! Learn more

10-Day Weather Forecast

Advertisements
Track Severe Weather on mobile